createdAt,value
2019-04-09T00:02:50.881Z,64.18
2019-04-09T00:05:40.151Z,63.24
2019-04-09T00:08:30.378Z,62.29
2019-04-09T00:11:19.984Z,61.76
2019-04-09T00:14:09.712Z,61.45
2019-04-09T00:16:58.497Z,60.98
2019-04-09T00:19:49.889Z,60.63
2019-04-09T00:22:39.703Z,60.65
2019-04-09T00:25:28.600Z,60.47
2019-04-09T00:28:10.685Z,60.02
2019-04-09T00:31:00.174Z,60.29
2019-04-09T00:33:48.995Z,60.16
2019-04-09T00:36:38.040Z,60.02
2019-04-09T00:39:28.503Z,60.09
2019-04-09T00:42:17.478Z,60.01
2019-04-09T00:48:21.914Z,60.04
2019-04-09T00:51:13.282Z,59.92
2019-04-09T00:54:02.963Z,59.89
2019-04-09T00:56:59.078Z,60.11
2019-04-09T00:59:43.716Z,60.26
2019-04-09T01:02:32.637Z,60.61
2019-04-09T01:05:21.650Z,60.98
2019-04-09T01:08:11.199Z,61.24
2019-04-09T01:11:01.150Z,61.21
2019-04-09T01:13:51.029Z,61.42
2019-04-09T01:16:40.439Z,61.66
2019-04-09T01:19:29.499Z,61.31
2019-04-09T01:22:19.327Z,61.26
2019-04-09T01:25:28.638Z,62.53
2019-04-09T01:28:12.596Z,62.72
2019-04-09T01:31:21.463Z,63.54
2019-04-09T01:34:30.166Z,63.64
2019-04-09T01:37:18.693Z,63.98
2019-04-09T01:40:26.590Z,64.33
2019-04-09T01:43:34.450Z,64.88
2019-04-09T01:46:43.586Z,66.26
2019-04-09T01:49:52.510Z,66.04
2019-04-09T01:53:00.965Z,66.00
2019-04-09T01:56:08.798Z,66.26
2019-04-09T01:59:16.874Z,66.91
2019-04-09T02:02:24.702Z,67.72
2019-04-09T02:05:32.533Z,67.53
2019-04-09T02:11:36.245Z,67.83
2019-04-09T02:14:44.052Z,68.16
2019-04-09T02:17:51.934Z,68.17
2019-04-09T02:20:59.845Z,68.15
2019-04-09T02:24:07.770Z,68.86
2019-04-09T02:30:06.287Z,69.55
2019-04-09T02:33:15.164Z,69.40
2019-04-09T02:36:24.403Z,70.38
2019-04-09T02:42:43.581Z,70.71
2019-04-09T02:45:33.099Z,72.55
2019-04-09T02:48:42.517Z,71.67
2019-04-09T02:51:50.984Z,71.06
2019-04-09T02:54:58.864Z,70.51
2019-04-09T02:58:06.697Z,71.18
2019-04-09T03:01:15.076Z,72.02
2019-04-09T03:04:04.427Z,72.07
2019-04-09T03:07:13.202Z,73.04
2019-04-09T03:10:22.240Z,72.95
2019-04-09T03:16:40.086Z,73.83
2019-04-09T03:19:47.898Z,73.64
2019-04-09T03:22:56.027Z,73.91
2019-04-09T03:26:03.916Z,73.91
2019-04-09T03:29:09.675Z,74.04
2019-04-09T03:32:19.260Z,74.21
2019-04-09T03:35:27.087Z,74.24
2019-04-09T03:38:34.913Z,73.92
2019-04-09T03:41:43.334Z,74.61
2019-04-09T03:44:51.725Z,74.25
2019-04-09T03:47:59.658Z,74.11
2019-04-09T03:51:07.510Z,74.62
2019-04-09T03:54:15.367Z,74.81
2019-04-09T04:00:14.220Z,74.85
2019-04-09T04:03:23.597Z,75.21
2019-04-09T04:06:32.227Z,74.75
2019-04-09T04:09:40.254Z,75.27
2019-04-09T04:18:43.791Z,75.98
2019-04-09T04:25:01.701Z,76.39
2019-04-09T04:28:10.390Z,76.13
2019-04-09T04:30:59.003Z,76.86
2019-04-09T04:37:04.317Z,77.36
2019-04-09T04:43:21.504Z,77.33
2019-04-09T04:46:29.303Z,77.34
2019-04-09T04:49:37.611Z,77.17
2019-04-09T04:52:46.083Z,77.66
2019-04-09T04:56:13.249Z,77.93
2019-04-09T04:59:22.208Z,78.89
2019-04-09T05:08:25.713Z,77.94
2019-04-09T05:11:34.832Z,78.04
2019-04-09T05:14:43.252Z,78.00
2019-04-09T05:21:00.454Z,77.15
2019-04-09T05:24:08.259Z,77.22
2019-04-09T05:27:16.966Z,77.12
2019-04-09T05:33:34.389Z,76.77
2019-04-09T05:36:42.520Z,77.71
2019-04-09T05:45:42.391Z,76.89
2019-04-09T05:51:59.791Z,76.33
2019-04-09T05:58:17.218Z,77.12
2019-04-09T06:01:06.481Z,76.69
2019-04-09T06:04:15.847Z,76.44
2019-04-09T06:07:23.688Z,75.79
2019-04-09T06:10:13.527Z,75.95
2019-04-09T06:13:03.168Z,75.72
2019-04-09T06:15:53.064Z,75.13
2019-04-09T06:18:42.740Z,73.95
2019-04-09T06:21:37.439Z,74.00
2019-04-09T06:24:22.765Z,72.85
2019-04-09T06:27:11.972Z,73.03
2019-04-09T06:29:56.274Z,71.88
2019-04-09T06:32:45.703Z,71.30
2019-04-09T06:35:53.589Z,72.39
2019-04-09T06:39:01.397Z,71.62
2019-04-09T06:45:08.180Z,70.93
2019-04-09T06:48:15.999Z,71.83
2019-04-09T06:51:32.377Z,72.85
2019-04-09T06:54:14.403Z,71.84
2019-04-09T06:57:23.693Z,71.13
2019-04-09T07:00:31.904Z,72.35
2019-04-09T07:03:39.724Z,73.38
2019-04-09T07:06:47.624Z,73.12
2019-04-09T07:09:55.847Z,72.94
2019-04-09T07:13:03.681Z,74.67
2019-04-09T07:16:11.643Z,73.86
2019-04-09T07:19:19.434Z,73.44
2019-04-09T07:22:08.775Z,72.68
2019-04-09T07:25:01.557Z,73.39
2019-04-09T07:28:11.940Z,72.69
2019-04-09T07:31:12.975Z,72.75
2019-04-09T07:34:20.811Z,71.72
2019-04-09T07:37:28.658Z,72.37
2019-04-09T07:40:19.842Z,71.83
2019-04-09T07:46:38.410Z,71.90
2019-04-09T07:49:46.226Z,71.67
2019-04-09T07:52:56.983Z,70.78
2019-04-09T07:55:44.564Z,70.43
2019-04-09T08:02:02.180Z,68.81
2019-04-09T08:05:12.088Z,68.28
2019-04-09T08:08:19.499Z,70.70
2019-04-09T08:14:35.500Z,69.88
2019-04-09T08:17:48.456Z,69.20
2019-04-09T08:20:54.645Z,69.35
2019-04-09T08:24:02.433Z,68.99
2019-04-09T08:27:12.437Z,69.49
2019-04-09T08:30:16.861Z,67.85
2019-04-09T08:39:16.708Z,66.22
2019-04-09T08:45:47.224Z,65.38
2019-04-09T08:52:07.978Z,64.24
2019-04-09T08:55:13.695Z,63.86
2019-04-09T08:58:25.906Z,61.71
2019-04-09T09:01:55.186Z,62.01
2019-04-09T09:04:51.748Z,61.29
2019-04-09T09:07:30.981Z,59.29
2019-04-09T09:13:40.926Z,57.90
2019-04-09T09:16:48.743Z,57.91
2019-04-09T09:19:57.358Z,57.82
2019-04-09T09:23:06.058Z,56.69
2019-04-09T09:26:15.661Z,55.87
2019-04-09T09:29:24.986Z,56.17
2019-04-09T09:32:34.865Z,55.68
2019-04-09T09:38:53.736Z,55.44
2019-04-09T09:45:10.659Z,54.89
2019-04-09T09:48:21.259Z,55.18
2019-04-09T09:51:30.103Z,55.95
2019-04-09T09:54:38.341Z,56.06
2019-04-09T09:57:47.459Z,53.36
2019-04-09T10:01:06.317Z,53.74
2019-04-09T10:07:14.797Z,53.08
2019-04-09T10:13:32.504Z,53.08
2019-04-09T10:19:50.636Z,52.05
2019-04-09T10:26:13.744Z,51.53
2019-04-09T10:29:18.241Z,51.91
2019-04-09T10:38:22.656Z,52.86
2019-04-09T10:41:37.328Z,51.79
2019-04-09T10:47:20.372Z,52.78
2019-04-09T10:50:33.526Z,53.52
2019-04-09T10:53:39.784Z,54.06
2019-04-09T10:56:50.109Z,52.90
2019-04-09T11:00:02.268Z,53.25
2019-04-09T11:02:47.398Z,53.95
2019-04-09T11:05:59.680Z,52.20
2019-04-09T11:09:05.636Z,53.45
2019-04-09T11:11:57.053Z,51.28
2019-04-09T11:14:43.027Z,51.54
2019-04-09T11:24:02.583Z,51.41
2019-04-09T11:27:15.057Z,48.92
2019-04-09T11:33:37.376Z,47.62
2019-04-09T11:39:42.711Z,46.64
2019-04-09T11:42:50.573Z,47.73
2019-04-09T11:48:39.676Z,46.93
2019-04-09T11:54:57.327Z,45.49
2019-04-09T11:57:46.690Z,45.83
2019-04-09T12:00:36.189Z,45.39
2019-04-09T12:06:40.079Z,46.79
2019-04-09T12:12:58.035Z,45.83
2019-04-09T12:16:07.058Z,45.89
2019-04-09T12:25:10.171Z,44.85
2019-04-09T12:28:19.141Z,44.51
2019-04-09T12:31:28.126Z,43.79
2019-04-09T12:34:36.014Z,42.85
2019-04-09T12:37:44.029Z,42.36
2019-04-09T12:46:43.787Z,42.76
2019-04-09T12:49:51.811Z,41.57
2019-04-09T12:59:08.116Z,42.19
2019-04-09T13:08:42.126Z,40.37
2019-04-09T13:14:53.373Z,40.05
2019-04-09T13:23:47.222Z,39.29
2019-04-09T13:26:56.581Z,38.92
2019-04-09T13:30:04.402Z,38.65
2019-04-09T13:33:12.847Z,39.57
2019-04-09T13:36:20.618Z,37.63
2019-04-09T13:39:29.492Z,37.08
2019-04-09T13:42:37.391Z,37.95
2019-04-09T13:45:46.320Z,38.73
2019-04-09T13:48:54.739Z,38.27
2019-04-09T13:52:02.567Z,37.23
2019-04-09T13:54:51.349Z,38.01
2019-04-09T13:57:40.310Z,36.79
2019-04-09T14:06:24.387Z,36.65
2019-04-09T14:09:14.009Z,36.01
2019-04-09T14:12:04.033Z,35.13
2019-04-09T14:14:57.377Z,35.48
2019-04-09T14:17:47.183Z,35.19
2019-04-09T14:20:37.824Z,34.90
2019-04-09T14:23:27.990Z,35.53
2019-04-09T14:26:18.261Z,35.53
2019-04-09T14:29:08.329Z,35.09
2019-04-09T14:31:57.120Z,35.97
2019-04-09T14:34:45.895Z,36.42
2019-04-09T14:37:35.260Z,36.33
2019-04-09T14:40:25.929Z,37.03
2019-04-09T14:43:15.791Z,37.03
2019-04-09T14:46:04.576Z,36.36
2019-04-09T14:48:53.386Z,36.46
2019-04-09T14:51:42.170Z,38.01
2019-04-09T14:54:31.913Z,37.96
2019-04-09T14:57:21.489Z,37.17
2019-04-09T15:03:14.982Z,37.47
2019-04-09T15:05:57.267Z,37.77
2019-04-09T15:08:47.453Z,37.55
2019-04-09T15:11:36.271Z,38.90
2019-04-09T15:14:18.010Z,39.05
2019-04-09T15:17:07.584Z,39.03
2019-04-09T15:19:38.011Z,39.14
2019-04-09T15:24:48.958Z,38.69
2019-04-09T15:27:37.833Z,39.64
2019-04-09T15:30:26.915Z,40.10
2019-04-09T15:33:26.868Z,39.64
2019-04-09T15:36:08.616Z,39.82
2019-04-09T15:38:58.790Z,39.71
2019-04-09T15:41:49.073Z,39.83
2019-04-09T15:44:37.984Z,39.82
2019-04-09T15:47:27.472Z,41.24
2019-04-09T15:50:17.991Z,41.06
2019-04-09T15:53:08.002Z,41.64
2019-04-09T15:55:57.936Z,41.92
2019-04-09T15:58:48.524Z,41.65
2019-04-09T16:01:38.150Z,41.57
2019-04-09T16:04:27.986Z,41.54
2019-04-09T16:07:17.750Z,42.26
2019-04-09T16:10:07.857Z,42.38
2019-04-09T16:12:57.483Z,42.26
2019-04-09T16:15:46.306Z,42.65
2019-04-09T16:18:36.182Z,42.83
2019-04-09T16:21:25.637Z,42.89
2019-04-09T16:24:14.941Z,43.15
2019-04-09T16:27:05.747Z,43.95
2019-04-09T16:29:55.464Z,44.52
2019-04-09T16:32:58.783Z,45.55
2019-04-09T16:35:34.778Z,47.22
2019-04-09T16:38:26.037Z,47.31
2019-04-09T16:41:15.808Z,47.96
2019-04-09T16:44:04.683Z,48.10
2019-04-09T16:46:53.973Z,48.14
2019-04-09T16:49:45.316Z,48.93
2019-04-09T16:52:34.046Z,49.70
2019-04-09T16:55:24.145Z,50.41
2019-04-09T16:58:14.971Z,50.83
2019-04-09T17:04:13.415Z,53.03
2019-04-09T17:06:55.376Z,53.25
2019-04-09T17:09:45.182Z,53.13
2019-04-09T17:12:33.983Z,53.71
2019-04-09T17:15:15.704Z,53.72
2019-04-09T17:18:04.508Z,53.26
2019-04-09T17:20:54.007Z,53.22
2019-04-09T17:23:43.895Z,53.16
2019-04-09T17:26:33.806Z,53.72
2019-04-09T17:29:23.207Z,54.85
2019-04-09T17:32:11.991Z,55.24
2019-04-09T17:35:00.787Z,55.81
2019-04-09T17:37:50.584Z,55.39
2019-04-09T17:40:40.094Z,55.28
2019-04-09T17:43:29.020Z,55.53
2019-04-09T17:46:20.237Z,56.14
2019-04-09T17:49:11.095Z,55.94
2019-04-09T17:52:00.432Z,56.40
2019-04-09T17:54:50.354Z,57.23
2019-04-09T17:57:39.739Z,57.23
2019-04-09T18:00:23.740Z,56.82
2019-04-09T18:03:13.184Z,57.12
2019-04-09T18:06:03.474Z,57.92
2019-04-09T18:08:52.306Z,57.16
2019-04-09T18:11:41.087Z,57.30
2019-04-09T18:14:29.867Z,57.74
2019-04-09T18:17:19.429Z,57.77
2019-04-09T18:20:09.752Z,58.08
2019-04-09T18:23:00.032Z,57.93
2019-04-09T18:25:56.583Z,58.27
2019-04-09T18:28:39.287Z,58.82
2019-04-09T18:31:34.118Z,58.92
2019-04-09T18:34:18.860Z,59.22
2019-04-09T18:37:08.088Z,59.55
2019-04-09T18:39:58.172Z,59.91
2019-04-09T18:42:47.645Z,59.81
2019-04-09T18:45:37.803Z,60.25
2019-04-09T18:48:33.778Z,60.26
2019-04-09T18:51:17.501Z,60.10
2019-04-09T18:54:07.708Z,60.48
2019-04-09T18:56:57.418Z,60.53
2019-04-09T18:59:47.019Z,60.84
2019-04-09T19:02:29.084Z,60.77
2019-04-09T19:05:18.215Z,60.88
2019-04-09T19:08:08.439Z,60.96
2019-04-09T19:10:57.268Z,61.42
2019-04-09T19:13:46.891Z,61.48
2019-04-09T19:16:36.573Z,61.50
2019-04-09T19:19:25.375Z,61.43
2019-04-09T19:22:14.155Z,61.53
2019-04-09T19:25:03.948Z,61.36
2019-04-09T19:27:53.474Z,61.52
2019-04-09T19:30:42.927Z,61.75
2019-04-09T19:33:32.786Z,61.90
2019-04-09T19:36:22.017Z,61.88
2019-04-09T19:39:12.775Z,62.16
2019-04-09T19:42:10.936Z,62.57
2019-04-09T19:44:53.229Z,62.47
2019-04-09T19:47:42.041Z,62.73
2019-04-09T19:50:32.877Z,62.90
2019-04-09T19:53:22.158Z,63.22
2019-04-09T19:56:13.055Z,62.86
2019-04-09T19:59:02.357Z,63.00
2019-04-09T20:01:44.198Z,63.28
2019-04-09T20:04:32.997Z,63.33
2019-04-09T20:07:22.520Z,63.59
2019-04-09T20:13:28.058Z,63.77
2019-04-09T20:16:19.141Z,63.90
2019-04-09T20:19:09.045Z,63.74
2019-04-09T20:21:58.949Z,63.56
2019-04-09T20:24:48.977Z,63.60
2019-04-09T20:27:39.247Z,63.40
2019-04-09T20:30:30.046Z,63.46
2019-04-09T20:33:19.876Z,63.69
2019-04-09T20:36:09.299Z,63.62
2019-04-09T20:38:59.717Z,63.57
2019-04-09T20:41:50.436Z,63.57
2019-04-09T20:44:40.328Z,63.43
2019-04-09T20:47:29.145Z,63.72
2019-04-09T20:50:18.055Z,63.43
2019-04-09T20:53:06.831Z,63.10
2019-04-09T20:55:56.220Z,62.87
2019-04-09T20:58:39.369Z,62.66
2019-04-09T21:01:47.336Z,62.90
2019-04-09T21:04:36.869Z,63.85
2019-04-09T21:07:26.663Z,64.66
2019-04-09T21:09:56.401Z,65.04
2019-04-09T21:12:46.737Z,64.81
2019-04-09T21:15:36.648Z,65.23
2019-04-09T21:18:27.135Z,66.51
2019-04-09T21:21:16.707Z,66.25
2019-04-09T21:24:05.511Z,65.78
2019-04-09T21:26:54.503Z,65.60
2019-04-09T21:29:43.335Z,65.64
2019-04-09T21:32:33.918Z,65.44
2019-04-09T21:35:23.514Z,65.27
2019-04-09T21:38:13.778Z,65.31
2019-04-09T21:41:03.639Z,65.49
2019-04-09T21:43:52.521Z,66.09
2019-04-09T21:46:41.594Z,66.41
2019-04-09T21:49:31.859Z,65.96
2019-04-09T21:52:20.977Z,65.87
2019-04-09T21:55:09.852Z,66.74
2019-04-09T21:57:58.652Z,66.82
2019-04-09T22:00:58.947Z,67.09
2019-04-09T22:03:48.430Z,67.75
2019-04-09T22:06:39.703Z,68.90
2019-04-09T22:09:29.060Z,68.80
2019-04-09T22:12:19.803Z,68.83
2019-04-09T22:15:10.803Z,68.40
2019-04-09T22:20:54.492Z,67.76
2019-04-09T22:23:49.458Z,67.88
2019-04-09T22:26:33.962Z,67.25
2019-04-09T22:29:25.291Z,66.62
2019-04-09T22:32:15.743Z,66.29
2019-04-09T22:38:35.528Z,66.05
2019-04-09T22:41:25.044Z,65.10
2019-04-09T22:44:13.829Z,65.27
2019-04-09T22:47:02.811Z,64.95
2019-04-09T22:49:53.292Z,64.41
2019-04-09T22:52:34.810Z,64.26
2019-04-09T22:55:24.510Z,63.70
2019-04-09T22:58:14.889Z,63.23
2019-04-09T23:04:22.614Z,62.88
2019-04-09T23:07:30.439Z,63.00
2019-04-09T23:10:38.261Z,63.21
2019-04-09T23:16:37.428Z,62.79
2019-04-09T23:19:28.024Z,63.03
2019-04-09T23:22:18.140Z,62.77
2019-04-09T23:25:08.465Z,62.68
2019-04-09T23:28:17.483Z,62.73
2019-04-09T23:31:06.352Z,62.28
2019-04-09T23:33:55.482Z,62.27
2019-04-09T23:36:53.994Z,62.20
2019-04-09T23:39:34.915Z,61.83
2019-04-09T23:42:23.656Z,61.93
2019-04-09T23:45:12.551Z,61.60
2019-04-09T23:48:03.878Z,61.43
2019-04-09T23:50:46.705Z,61.81
2019-04-09T23:53:35.495Z,61.74
2019-04-09T23:56:25.241Z,61.56
2019-04-09T23:59:15.660Z,61.33
